createdAt,value
2022-12-23T00:00:35.311Z,133.77
2022-12-23T00:03:03.855Z,142.10
2022-12-23T00:05:37.737Z,131.53
2022-12-23T00:08:07.830Z,131.50
2022-12-23T00:10:39.322Z,133.97
2022-12-23T00:13:25.583Z,121.27
2022-12-23T00:16:03.534Z,135.10
2022-12-23T00:18:32.310Z,128.90
2022-12-23T00:21:08.108Z,160.63
2022-12-23T00:23:39.605Z,117.60
2022-12-23T00:26:08.996Z,153.27
2022-12-23T00:28:37.340Z,115.67
2022-12-23T00:31:08.908Z,142.57
2022-12-23T00:33:39.165Z,122.37
2022-12-23T00:36:14.579Z,138.50
2022-12-23T00:39:00.516Z,124.30
2022-12-23T00:41:46.187Z,154.10
2022-12-23T00:44:15.162Z,129.43
2022-12-23T00:46:44.877Z,100.90
2022-12-23T00:49:44.539Z,152.00
2022-12-23T00:52:16.883Z,145.97
2022-12-23T00:54:45.332Z,154.97
2022-12-23T00:57:13.779Z,100.47
2022-12-23T00:59:42.114Z,121.60
2022-12-23T01:02:30.922Z,122.83
2022-12-23T01:05:16.759Z,123.80
2022-12-23T01:07:45.082Z,124.97
2022-12-23T01:10:13.463Z,143.83
2022-12-23T01:12:41.726Z,119.90
2022-12-23T01:15:11.317Z,119.30
2022-12-23T01:17:41.044Z,109.90
2022-12-23T01:20:10.876Z,162.00
2022-12-23T01:22:39.235Z,130.00
2022-12-23T01:25:08.644Z,136.60
2022-12-23T01:27:37.113Z,129.87
2022-12-23T01:30:06.865Z,149.47
2022-12-23T01:32:35.242Z,123.87
2022-12-23T01:35:05.682Z,128.10
2022-12-23T01:37:33.985Z,143.93
2022-12-23T01:40:02.403Z,127.50
2022-12-23T01:42:45.031Z,122.17
2022-12-23T01:45:20.720Z,128.13
2022-12-23T01:47:56.994Z,139.00
2022-12-23T01:50:31.369Z,169.33
2022-12-23T01:53:08.110Z,160.87
2022-12-23T01:55:42.531Z,113.40
2022-12-23T01:58:14.788Z,145.80
2022-12-23T02:01:01.218Z,118.47
2022-12-23T02:03:50.849Z,130.03
2022-12-23T02:06:43.140Z,128.30
2022-12-23T02:09:19.979Z,127.60
2022-12-23T02:12:21.422Z,104.73
2022-12-23T02:15:22.622Z,151.77
2022-12-23T02:18:07.464Z,137.83
2022-12-23T02:21:07.007Z,155.47
2022-12-23T02:24:42.254Z,155.70
2022-12-23T02:27:27.822Z,129.97
2022-12-23T02:30:39.174Z,158.63
2022-12-23T02:33:39.106Z,183.37
2022-12-23T02:36:31.699Z,131.20
2022-12-23T02:39:08.299Z,138.20
2022-12-23T02:41:46.599Z,120.83
2022-12-23T02:44:28.599Z,150.47
2022-12-23T02:47:02.839Z,130.13
2022-12-23T02:49:35.555Z,129.00
2022-12-23T02:52:08.053Z,159.00
2022-12-23T02:54:43.062Z,139.87
2022-12-23T02:57:14.817Z,153.40
2022-12-23T02:59:48.570Z,146.80
2022-12-23T03:02:18.460Z,154.43
2022-12-23T03:04:47.117Z,160.57
2022-12-23T03:07:19.934Z,142.27
2022-12-23T03:09:59.764Z,131.77
2022-12-23T03:12:44.007Z,156.33
2022-12-23T03:15:26.561Z,143.23
2022-12-23T03:18:05.332Z,147.90
2022-12-23T03:20:43.875Z,140.47
2022-12-23T03:23:21.235Z,148.23
2022-12-23T03:26:00.027Z,154.00
2022-12-23T03:28:35.359Z,149.97
2022-12-23T03:31:05.468Z,145.03
2022-12-23T03:33:38.348Z,161.40
2022-12-23T03:36:14.550Z,163.63
2022-12-23T03:38:45.428Z,177.17
2022-12-23T03:41:19.433Z,164.60
2022-12-23T03:43:53.963Z,151.57
2022-12-23T03:46:35.320Z,165.67
2022-12-23T03:49:10.529Z,163.97
2022-12-23T03:51:46.010Z,171.70
2022-12-23T03:54:20.819Z,170.53
2022-12-23T03:56:56.300Z,197.63
2022-12-23T03:59:29.196Z,185.00
2022-12-23T04:02:07.923Z,157.97
2022-12-23T04:04:54.574Z,156.93
2022-12-23T04:07:27.799Z,152.30
2022-12-23T04:09:56.667Z,150.67
2022-12-23T04:12:28.505Z,139.87
2022-12-23T04:14:56.881Z,154.20
2022-12-23T04:17:25.375Z,149.63
2022-12-23T04:19:55.672Z,149.20
2022-12-23T04:22:24.211Z,143.23
2022-12-23T04:24:52.586Z,160.70
2022-12-23T04:27:20.972Z,140.23
2022-12-23T04:29:49.314Z,155.90
2022-12-23T04:32:17.662Z,144.53
2022-12-23T04:34:46.096Z,150.43
2022-12-23T04:37:15.811Z,140.27
2022-12-23T04:39:44.195Z,139.67
2022-12-23T04:42:12.538Z,143.53
2022-12-23T04:44:40.877Z,175.83
2022-12-23T04:47:09.410Z,167.47
2022-12-23T04:49:37.913Z,179.33
2022-12-23T04:52:06.541Z,167.03
2022-12-23T04:54:40.510Z,159.97
2022-12-23T04:57:12.367Z,164.93
2022-12-23T04:59:40.759Z,158.57
2022-12-23T05:02:09.733Z,180.97
2022-12-23T05:04:38.641Z,181.27
2022-12-23T05:07:07.006Z,185.63
2022-12-23T05:09:36.678Z,149.93
2022-12-23T05:12:05.432Z,176.80
2022-12-23T05:14:33.783Z,171.00
2022-12-23T05:17:07.105Z,162.53
2022-12-23T05:19:36.190Z,137.10
2022-12-23T05:22:04.527Z,156.30
2022-12-23T05:24:32.984Z,146.20
2022-12-23T05:27:02.735Z,163.80
2022-12-23T05:29:31.159Z,155.00
2022-12-23T05:31:59.555Z,173.33
2022-12-23T05:34:27.981Z,160.33
2022-12-23T05:36:56.355Z,167.20
2022-12-23T05:39:24.757Z,168.47
2022-12-23T05:41:53.067Z,172.07
2022-12-23T05:44:22.784Z,170.07
2022-12-23T05:46:51.168Z,183.67
2022-12-23T05:49:19.591Z,174.43
2022-12-23T05:51:47.898Z,157.63
2022-12-23T05:54:16.452Z,163.50
2022-12-23T05:56:44.989Z,176.33
2022-12-23T05:59:13.307Z,194.17
2022-12-23T06:01:43.107Z,172.20
2022-12-23T06:04:11.851Z,249.57
2022-12-23T06:06:40.354Z,228.37
2022-12-23T06:09:08.890Z,239.07
2022-12-23T06:11:37.160Z,189.67
2022-12-23T06:14:07.263Z,197.13
2022-12-23T06:16:35.675Z,211.60
2022-12-23T06:19:05.691Z,159.40
2022-12-23T06:21:34.445Z,181.73
2022-12-23T06:24:02.843Z,233.77
2022-12-23T06:26:31.232Z,189.87
2022-12-23T06:28:59.697Z,182.37
2022-12-23T06:31:28.097Z,239.23
2022-12-23T06:33:56.501Z,226.90
2022-12-23T06:36:26.336Z,338.07
2022-12-23T06:38:54.698Z,266.67
2022-12-23T06:41:23.009Z,361.50
2022-12-23T06:43:54.391Z,342.13
2022-12-23T06:46:23.200Z,417.27
2022-12-23T06:48:51.545Z,286.67
2022-12-23T06:51:19.987Z,283.30
2022-12-23T06:53:49.805Z,252.30
2022-12-23T06:56:18.683Z,243.87
2022-12-23T06:58:47.041Z,180.20
2022-12-23T07:01:15.427Z,143.53
2022-12-23T07:03:43.887Z,158.73
2022-12-23T07:06:12.459Z,146.90
2022-12-23T07:08:40.875Z,172.47
2022-12-23T07:11:10.633Z,163.43
2022-12-23T07:13:39.013Z,194.90
2022-12-23T07:16:10.419Z,170.80
2022-12-23T07:18:38.935Z,179.60
2022-12-23T07:21:13.995Z,204.63
2022-12-23T07:23:48.338Z,192.30
2022-12-23T07:26:18.078Z,162.63
2022-12-23T07:28:48.345Z,159.60
2022-12-23T07:31:17.053Z,144.17
2022-12-23T07:33:45.809Z,139.30
2022-12-23T07:36:14.437Z,138.07
2022-12-23T07:38:43.067Z,116.97
2022-12-23T07:41:11.390Z,125.13
2022-12-23T07:43:41.143Z,131.17
2022-12-23T07:46:10.347Z,132.77
2022-12-23T07:48:38.887Z,126.63
2022-12-23T07:51:07.421Z,139.03
2022-12-23T07:53:35.855Z,137.30
2022-12-23T07:56:04.502Z,144.47
2022-12-23T07:58:32.880Z,123.03
2022-12-23T08:01:04.756Z,124.10
2022-12-23T08:03:33.569Z,124.23
2022-12-23T08:06:03.590Z,137.60
2022-12-23T08:08:32.392Z,115.23
2022-12-23T08:11:03.043Z,123.63
2022-12-23T08:13:33.787Z,131.13
2022-12-23T08:16:05.732Z,122.93
2022-12-23T08:18:38.048Z,115.97
2022-12-23T08:21:09.108Z,115.47
2022-12-23T08:23:37.492Z,124.17
2022-12-23T08:26:09.257Z,112.17
2022-12-23T08:28:38.754Z,104.50
2022-12-23T08:31:12.181Z,108.10
2022-12-23T08:33:43.110Z,114.60
2022-12-23T08:36:20.780Z,98.30
2022-12-23T08:38:52.394Z,95.97
2022-12-23T08:41:23.762Z,106.30
2022-12-23T08:43:52.548Z,110.63
2022-12-23T08:46:22.931Z,107.33
2022-12-23T08:48:51.775Z,111.73
2022-12-23T08:51:22.480Z,111.97
2022-12-23T08:53:57.907Z,112.57
2022-12-23T08:56:32.208Z,129.50
2022-12-23T08:59:01.424Z,118.80
2022-12-23T09:01:33.999Z,107.20
2022-12-23T09:04:04.876Z,119.37
2022-12-23T09:06:37.866Z,139.53
2022-12-23T09:09:07.047Z,117.63
2022-12-23T09:11:36.041Z,134.83
2022-12-23T09:14:05.792Z,179.10
2022-12-23T09:16:35.702Z,219.50
2022-12-23T09:19:04.512Z,192.20
2022-12-23T09:21:33.054Z,217.97
2022-12-23T09:24:02.124Z,201.67
2022-12-23T09:26:32.463Z,350.83
2022-12-23T09:29:01.372Z,305.60
2022-12-23T09:31:36.195Z,342.67
2022-12-23T09:34:07.781Z,243.67
2022-12-23T09:36:36.187Z,218.30
2022-12-23T09:39:05.241Z,183.23
2022-12-23T09:41:57.124Z,141.00
2022-12-23T09:44:41.764Z,108.87
2022-12-23T09:47:15.672Z,183.07
2022-12-23T09:49:50.119Z,152.37
2022-12-23T09:52:25.116Z,231.03
2022-12-23T09:54:56.291Z,181.10
2022-12-23T09:57:32.524Z,153.33
2022-12-23T10:00:10.881Z,277.03
2022-12-23T10:02:52.599Z,103.40
2022-12-23T10:05:32.367Z,69.87
2022-12-23T10:08:08.418Z,79.73
2022-12-23T10:10:40.869Z,84.73
2022-12-23T10:13:20.444Z,72.93
2022-12-23T10:15:50.516Z,115.70
2022-12-23T10:18:29.360Z,95.47
2022-12-23T10:21:05.977Z,82.83
2022-12-23T10:23:38.862Z,63.73
2022-12-23T10:26:18.936Z,59.10
2022-12-23T10:28:47.982Z,56.33
2022-12-23T10:31:39.871Z,55.87
2022-12-23T10:34:18.480Z,57.40
2022-12-23T10:36:57.517Z,54.93
2022-12-23T10:39:34.027Z,66.20
2022-12-23T10:42:12.461Z,66.10
2022-12-23T10:45:00.172Z,64.53
2022-12-23T10:47:45.185Z,58.10
2022-12-23T10:50:46.126Z,57.50
2022-12-23T10:53:25.576Z,55.70
2022-12-23T10:55:53.924Z,64.90
2022-12-23T10:58:23.775Z,61.77
2022-12-23T11:00:57.664Z,60.73
2022-12-23T11:03:31.551Z,63.47
2022-12-23T11:06:02.595Z,56.00
2022-12-23T11:08:33.601Z,49.53
2022-12-23T11:11:02.607Z,51.97
2022-12-23T11:13:40.795Z,48.80
2022-12-23T11:16:20.613Z,46.27
2022-12-23T11:19:02.180Z,43.17
2022-12-23T11:21:34.645Z,39.83
2022-12-23T11:24:27.260Z,39.73
2022-12-23T11:27:03.373Z,42.03
2022-12-23T11:29:35.901Z,43.80
2022-12-23T11:32:17.016Z,45.13
2022-12-23T11:34:47.607Z,43.93
2022-12-23T11:37:31.509Z,41.73
2022-12-23T11:40:01.392Z,46.50
2022-12-23T11:42:31.809Z,44.73
2022-12-23T11:45:01.895Z,44.73
2022-12-23T11:47:43.218Z,48.83
2022-12-23T11:50:38.200Z,44.60
2022-12-23T11:53:15.341Z,46.60
2022-12-23T11:55:59.455Z,40.27
2022-12-23T11:58:31.347Z,36.50
2022-12-23T12:01:02.150Z,37.43
2022-12-23T12:03:35.270Z,38.50
2022-12-23T12:06:06.867Z,36.33
2022-12-23T12:08:39.078Z,41.97
2022-12-23T12:11:16.772Z,39.20
2022-12-23T12:13:49.160Z,42.60
2022-12-23T12:16:48.214Z,44.73
2022-12-23T12:19:24.873Z,45.17
2022-12-23T12:21:58.451Z,38.87
2022-12-23T12:24:33.857Z,40.40
2022-12-23T12:27:07.608Z,39.03
2022-12-23T12:29:42.951Z,37.03
2022-12-23T12:32:19.729Z,45.33
2022-12-23T12:34:54.882Z,40.20
2022-12-23T12:37:34.941Z,38.43
2022-12-23T12:40:12.747Z,42.00
2022-12-23T12:42:44.129Z,36.60
2022-12-23T12:45:19.222Z,34.27
2022-12-23T12:48:00.203Z,34.80
2022-12-23T12:50:40.877Z,35.13
2022-12-23T12:53:17.333Z,33.93
2022-12-23T12:55:52.220Z,41.10
2022-12-23T12:58:24.364Z,35.17
2022-12-23T13:01:08.421Z,36.60
2022-12-23T13:04:09.699Z,39.53
2022-12-23T13:06:45.922Z,39.50
2022-12-23T13:09:30.447Z,42.43
2022-12-23T13:12:08.089Z,40.10
2022-12-23T13:14:54.968Z,35.70
2022-12-23T13:17:28.617Z,63.37
2022-12-23T13:20:04.380Z,83.73
2022-12-23T13:22:35.190Z,168.50
2022-12-23T13:25:11.411Z,181.87
2022-12-23T13:27:47.941Z,124.80
2022-12-23T13:30:20.294Z,103.93
2022-12-23T13:33:14.338Z,155.07
2022-12-23T13:36:05.714Z,120.67
2022-12-23T13:39:02.757Z,73.07
2022-12-23T13:41:36.977Z,47.43
2022-12-23T13:44:08.669Z,48.67
2022-12-23T13:46:50.624Z,48.63
2022-12-23T13:49:32.467Z,46.27
2022-12-23T13:52:11.709Z,46.43
2022-12-23T13:54:57.065Z,48.53
2022-12-23T13:57:43.356Z,144.90
2022-12-23T14:00:30.240Z,89.47
2022-12-23T14:03:20.873Z,74.20
2022-12-23T14:05:51.063Z,48.33
2022-12-23T14:08:40.879Z,59.13
2022-12-23T14:11:17.594Z,71.83
2022-12-23T14:13:55.228Z,79.00
2022-12-23T14:16:57.199Z,59.87
2022-12-23T14:19:44.800Z,58.63
2022-12-23T14:22:49.944Z,51.23
2022-12-23T14:25:59.909Z,59.37
2022-12-23T14:28:51.185Z,67.33
2022-12-23T14:31:38.143Z,56.33
2022-12-23T14:34:26.925Z,80.57
2022-12-23T14:37:35.295Z,126.63
2022-12-23T14:40:51.019Z,179.63
2022-12-23T14:43:51.298Z,108.90
2022-12-23T14:46:57.100Z,73.77
2022-12-23T14:49:43.993Z,72.90
2022-12-23T14:53:00.320Z,65.20
2022-12-23T14:56:13.839Z,66.57
2022-12-23T14:59:09.882Z,66.87
2022-12-23T15:01:41.950Z,72.47
2022-12-23T15:04:20.053Z,72.20
2022-12-23T15:06:52.403Z,80.13
2022-12-23T15:09:27.652Z,80.27
2022-12-23T15:11:57.796Z,82.57
2022-12-23T15:14:35.403Z,81.63
2022-12-23T15:17:18.030Z,90.77
2022-12-23T15:19:48.198Z,83.80
2022-12-23T15:22:25.198Z,75.87
2022-12-23T15:24:58.159Z,72.90
2022-12-23T15:27:29.295Z,80.47
2022-12-23T15:29:59.365Z,75.53
2022-12-23T15:32:30.378Z,82.43
2022-12-23T15:35:04.373Z,78.73
2022-12-23T15:37:34.375Z,77.87
2022-12-23T15:40:12.531Z,74.27
2022-12-23T15:42:49.947Z,87.13
2022-12-23T15:45:34.873Z,68.33
2022-12-23T15:48:05.841Z,84.30
2022-12-23T15:50:41.862Z,78.23
2022-12-23T15:53:14.495Z,74.90
2022-12-23T15:55:44.784Z,88.80
2022-12-23T15:58:21.286Z,88.80
2022-12-23T16:00:55.979Z,83.77
2022-12-23T16:03:32.380Z,84.03
2022-12-23T16:06:10.620Z,80.73
2022-12-23T16:08:39.946Z,82.37
2022-12-23T16:11:16.492Z,80.93
2022-12-23T16:13:58.754Z,84.17
2022-12-23T16:16:41.854Z,76.60
2022-12-23T16:19:44.654Z,86.10
2022-12-23T16:22:25.387Z,87.20
2022-12-23T16:25:01.923Z,84.07
2022-12-23T16:27:40.619Z,84.47
2022-12-23T16:30:18.848Z,86.77
2022-12-23T16:32:52.388Z,81.63
2022-12-23T16:35:38.561Z,76.87
2022-12-23T16:38:17.813Z,89.07
2022-12-23T16:40:48.658Z,90.40
2022-12-23T16:43:20.009Z,91.53
2022-12-23T16:45:53.792Z,87.50
2022-12-23T16:48:31.044Z,90.77
2022-12-23T16:51:00.650Z,80.37
2022-12-23T16:53:29.539Z,81.53
2022-12-23T16:56:00.800Z,76.93
2022-12-23T16:58:31.254Z,95.00
2022-12-23T17:00:59.739Z,78.13
2022-12-23T17:03:28.214Z,87.87
2022-12-23T17:05:57.120Z,77.27
2022-12-23T17:08:25.690Z,72.57
2022-12-23T17:10:54.200Z,74.23
2022-12-23T17:13:22.679Z,73.63
2022-12-23T17:15:52.433Z,59.90
2022-12-23T17:18:21.348Z,116.07
2022-12-23T17:20:51.061Z,85.70
2022-12-23T17:23:29.408Z,161.53
2022-12-23T17:25:58.378Z,95.57
2022-12-23T17:28:32.294Z,71.17
2022-12-23T17:31:08.665Z,75.03
2022-12-23T17:33:41.841Z,98.77
2022-12-23T17:36:11.474Z,63.90
2022-12-23T17:38:40.400Z,80.67
2022-12-23T17:41:18.188Z,68.27
2022-12-23T17:43:46.616Z,60.20
2022-12-23T17:46:16.552Z,61.50
2022-12-23T17:48:46.952Z,51.40
2022-12-23T17:51:16.586Z,47.03
2022-12-23T17:53:45.065Z,54.47
2022-12-23T17:56:15.789Z,48.67
2022-12-23T17:58:45.761Z,50.10
2022-12-23T18:01:20.051Z,47.70
2022-12-23T18:03:48.831Z,54.37
2022-12-23T18:06:21.253Z,55.70
2022-12-23T18:08:50.480Z,54.07
2022-12-23T18:11:23.338Z,62.07
2022-12-23T18:13:54.069Z,55.67
2022-12-23T18:16:24.852Z,55.17
2022-12-23T18:18:53.302Z,51.13
2022-12-23T18:21:24.648Z,57.70
2022-12-23T18:23:54.972Z,46.70
2022-12-23T18:26:23.341Z,57.37
2022-12-23T18:28:54.107Z,60.47
2022-12-23T18:31:27.609Z,57.27
2022-12-23T18:33:56.715Z,58.50
2022-12-23T18:36:27.509Z,59.47
2022-12-23T18:38:57.381Z,56.60
2022-12-23T18:41:27.049Z,65.40
2022-12-23T18:43:56.089Z,70.87
2022-12-23T18:46:26.318Z,67.83
2022-12-23T18:48:55.028Z,75.37
2022-12-23T18:51:23.710Z,71.93
2022-12-23T18:53:52.519Z,84.73
2022-12-23T18:56:21.889Z,74.57
2022-12-23T18:58:50.952Z,77.80
2022-12-23T19:01:20.627Z,91.07
2022-12-23T19:03:50.484Z,82.87
2022-12-23T19:06:18.930Z,76.20
2022-12-23T19:08:47.372Z,87.33
2022-12-23T19:11:19.402Z,89.90
2022-12-23T19:13:48.273Z,100.00
2022-12-23T19:16:19.152Z,91.63
2022-12-23T19:18:50.685Z,83.60
2022-12-23T19:21:19.933Z,86.53
2022-12-23T19:23:48.504Z,87.57
2022-12-23T19:26:17.067Z,84.10
2022-12-23T19:28:48.259Z,78.40
2022-12-23T19:31:18.511Z,83.17
2022-12-23T19:33:49.314Z,88.23
2022-12-23T19:36:22.800Z,78.23
2022-12-23T19:38:51.632Z,79.07
2022-12-23T19:41:21.052Z,75.20
2022-12-23T19:43:49.543Z,73.70
2022-12-23T19:46:19.449Z,74.50
2022-12-23T19:48:53.516Z,73.03
2022-12-23T19:51:22.039Z,74.00
2022-12-23T19:53:53.175Z,65.00
2022-12-23T19:56:22.510Z,70.57
2022-12-23T19:58:51.685Z,71.20
2022-12-23T20:01:24.000Z,68.43
2022-12-23T20:03:56.637Z,65.70
2022-12-23T20:06:29.217Z,68.87
2022-12-23T20:09:00.942Z,74.77
2022-12-23T20:11:30.707Z,78.87
2022-12-23T20:14:00.659Z,68.83
2022-12-23T20:16:30.693Z,64.20
2022-12-23T20:19:00.554Z,69.13
2022-12-23T20:21:29.204Z,69.37
2022-12-23T20:23:58.034Z,78.27
2022-12-23T20:26:27.720Z,67.67
2022-12-23T20:28:57.300Z,71.53
2022-12-23T20:31:28.605Z,66.47
2022-12-23T20:33:59.799Z,67.57
2022-12-23T20:36:33.367Z,77.40
2022-12-23T20:39:03.600Z,75.87
2022-12-23T20:41:35.812Z,74.83
2022-12-23T20:47:01.600Z,59.73
2022-12-23T20:49:31.693Z,64.97
2022-12-23T20:52:00.134Z,68.50
2022-12-23T20:54:33.234Z,66.73
2022-12-23T20:57:03.970Z,62.37
2022-12-23T20:59:33.209Z,68.10
2022-12-23T21:02:02.900Z,67.37
2022-12-23T21:04:33.096Z,82.97
2022-12-23T21:07:01.764Z,63.93
2022-12-23T21:09:30.464Z,75.50
2022-12-23T21:11:59.415Z,74.00
2022-12-23T21:14:28.266Z,76.53
2022-12-23T21:16:56.714Z,75.30
2022-12-23T21:19:27.293Z,77.03
2022-12-23T21:21:58.159Z,84.67
2022-12-23T21:24:26.822Z,82.20
2022-12-23T21:26:57.150Z,98.13
2022-12-23T21:29:26.570Z,106.03
2022-12-23T21:31:55.521Z,99.10
2022-12-23T21:34:24.808Z,108.97
2022-12-23T21:36:53.384Z,109.87
2022-12-23T21:39:23.428Z,103.77
2022-12-23T21:41:53.835Z,91.53
2022-12-23T21:44:28.463Z,89.80
2022-12-23T21:46:58.248Z,86.33
2022-12-23T21:49:27.752Z,86.63
2022-12-23T21:51:57.760Z,120.67
2022-12-23T21:54:27.732Z,132.40
2022-12-23T21:56:56.775Z,82.87
2022-12-23T21:59:29.674Z,141.50
2022-12-23T22:02:01.655Z,121.43
2022-12-23T22:04:30.448Z,85.67
2022-12-23T22:06:59.484Z,146.37
2022-12-23T22:09:32.918Z,122.20
2022-12-23T22:12:01.734Z,95.53
2022-12-23T22:14:30.220Z,78.23
2022-12-23T22:16:59.352Z,79.70
2022-12-23T22:19:28.076Z,60.87
2022-12-23T22:21:57.080Z,60.27
2022-12-23T22:24:27.041Z,56.87
2022-12-23T22:26:57.040Z,67.07
2022-12-23T22:29:27.845Z,72.13
2022-12-23T22:31:56.782Z,70.73
2022-12-23T22:34:27.114Z,76.80
2022-12-23T22:36:55.864Z,78.83
2022-12-23T22:39:24.464Z,60.90
2022-12-23T22:41:53.730Z,55.17
2022-12-23T22:44:24.367Z,54.17
2022-12-23T22:46:53.108Z,57.77
2022-12-23T22:49:22.016Z,61.30
2022-12-23T22:51:50.509Z,68.23
2022-12-23T22:54:19.218Z,67.53
2022-12-23T22:56:50.527Z,76.00
2022-12-23T22:59:25.875Z,68.93
2022-12-23T23:01:54.906Z,67.77
2022-12-23T23:04:23.699Z,88.87
2022-12-23T23:06:52.119Z,94.23
2022-12-23T23:09:22.755Z,82.63
2022-12-23T23:11:51.751Z,81.27
2022-12-23T23:14:22.595Z,84.80
2022-12-23T23:16:51.116Z,90.33
2022-12-23T23:19:20.905Z,89.97
2022-12-23T23:21:49.889Z,83.13
2022-12-23T23:24:18.286Z,78.27
2022-12-23T23:26:46.807Z,57.20
2022-12-23T23:29:15.223Z,63.73
2022-12-23T23:31:45.308Z,60.40
2022-12-23T23:34:14.230Z,66.27
2022-12-23T23:36:42.697Z,60.00
2022-12-23T23:39:14.605Z,67.07
2022-12-23T23:41:43.413Z,80.20
2022-12-23T23:44:13.049Z,80.60
2022-12-23T23:46:41.816Z,64.60
2022-12-23T23:49:12.656Z,56.10
2022-12-23T23:51:41.654Z,59.43
2022-12-23T23:54:10.762Z,60.30
2022-12-23T23:56:39.659Z,63.40
2022-12-23T23:59:09.262Z,67.50
